Time;durP1;ratioP1;P1;durP2;ratioP2;P2;SDS_P1;SDS_P2;PMS_P1;PMS_P2;Temp;Humidity;BMP_temperature;BMP_pressure;BME280_temperature;BME280_humidity;BME280_pressure;Samples;Min_cycle;Max_cycle;Signal;HPM_P1;HPM_P2
2022/09/08 00:02:50;;;;;;;0.90;0.80;;;11.70;99.90;;;;;;6264117;28;20570;-68
2022/09/08 00:06:02;;;;;;;0.80;0.80;;;11.70;99.90;;;;;;6264782;28;20559;-69
2022/09/08 00:09:08;;;;;;;0.88;0.88;;;11.70;99.90;;;;;;6263896;28;20295;-68
2022/09/08 00:12:15;;;;;;;0.80;0.80;;;11.70;99.90;;;;;;6263684;28;20268;-68
2022/09/08 00:15:23;;;;;;;0.80;0.80;;;11.70;99.90;;;;;;6264213;28;20267;-69
2022/09/08 00:18:29;;;;;;;0.80;0.80;;;11.50;99.90;;;;;;6263748;28;20299;-69
2022/09/08 00:21:34;;;;;;;0.75;0.75;;;11.50;99.90;;;;;;6279227;28;20291;-68
2022/09/08 00:24:40;;;;;;;0.80;0.80;;;11.60;99.90;;;;;;6263963;28;20303;-69
2022/09/08 00:27:45;;;;;;;0.88;0.88;;;11.50;99.90;;;;;;6263436;28;20300;-69
2022/09/08 00:30:54;;;;;;;0.77;0.77;;;11.50;99.90;;;;;;6264092;28;20272;-68
2022/09/08 00:34:00;;;;;;;0.73;0.73;;;11.60;99.90;;;;;;6263340;28;20328;-68
2022/09/08 00:37:06;;;;;;;0.80;0.80;;;11.50;99.90;;;;;;6263214;28;20291;-69
2022/09/08 00:40:12;;;;;;;0.75;0.75;;;11.60;99.90;;;;;;6263450;28;20276;-68
2022/09/08 00:43:34;;;;;;;1.00;1.00;;;11.50;99.90;;;;;;6263309;28;20344;-69
2022/09/08 00:46:42;;;;;;;0.73;0.73;;;11.50;99.90;;;;;;6263552;28;20272;-69
2022/09/08 00:49:52;;;;;;;0.75;0.75;;;11.50;99.90;;;;;;6263042;28;20300;-69
2022/09/08 00:53:01;;;;;;;0.80;0.80;;;11.50;99.90;;;;;;6262729;28;20299;-69
2022/09/08 00:56:07;;;;;;;0.90;0.85;;;11.40;99.90;;;;;;6262900;28;20267;-69
2022/09/08 00:59:15;;;;;;;0.90;0.90;;;11.40;99.90;;;;;;6262776;28;20295;-69
2022/09/08 01:02:25;;;;;;;0.88;0.88;;;11.40;99.90;;;;;;6263087;28;20291;-69
2022/09/08 01:05:39;;;;;;;0.82;0.82;;;11.40;99.90;;;;;;6263528;28;20290;-69
2022/09/08 01:15:40;;;;;;;0.75;0.75;;;11.40;99.90;;;;;;6263213;28;20277;-68
2022/09/08 01:18:47;;;;;;;0.85;0.85;;;11.50;99.90;;;;;;6262498;28;20303;-68
2022/09/08 01:22:13;;;;;;;0.80;0.80;;;11.40;99.90;;;;;;6262245;28;20271;-68
2022/09/08 01:25:31;;;;;;;0.90;0.80;;;11.50;99.90;;;;;;6261966;28;20275;-68
2022/09/08 01:28:42;;;;;;;0.75;0.75;;;11.50;99.90;;;;;;6261809;28;20311;-68
2022/09/08 01:31:49;;;;;;;0.70;0.70;;;11.50;99.90;;;;;;6262528;28;20267;-68
2022/09/08 01:34:54;;;;;;;0.80;0.80;;;11.50;99.90;;;;;;6261860;28;20296;-69
2022/09/08 01:38:00;;;;;;;0.80;0.80;;;11.50;99.90;;;;;;6261662;28;20304;-69
2022/09/08 01:41:06;;;;;;;0.93;0.93;;;11.50;99.90;;;;;;6262798;28;20271;-69
2022/09/08 01:44:14;;;;;;;0.90;0.90;;;11.50;99.90;;;;;;6261965;28;20338;-68
2022/09/08 01:47:19;;;;;;;0.80;0.80;;;11.60;99.90;;;;;;6261836;28;20303;-69
2022/09/08 01:50:24;;;;;;;1.08;0.80;;;11.60;99.90;;;;;;6262137;28;20271;-68
2022/09/08 01:53:30;;;;;;;0.90;0.82;;;11.50;99.90;;;;;;6261883;28;20295;-68
2022/09/08 01:56:36;;;;;;;0.80;0.80;;;11.50;99.90;;;;;;6261941;28;20271;-69
2022/09/08 01:59:43;;;;;;;0.70;0.70;;;11.50;99.90;;;;;;6261605;28;20307;-68
2022/09/08 02:02:48;;;;;;;1.55;0.80;;;11.50;99.90;;;;;;6261493;28;20288;-68
2022/09/08 02:05:54;;;;;;;0.88;0.88;;;11.50;99.90;;;;;;6261548;28;20272;-68
2022/09/08 02:09:00;;;;;;;0.95;0.95;;;11.50;99.90;;;;;;6261349;28;20298;-68
2022/09/08 02:12:06;;;;;;;0.80;0.80;;;11.40;99.90;;;;;;6261117;28;20264;-69
2022/09/08 02:15:14;;;;;;;0.80;0.80;;;11.30;99.90;;;;;;6261410;28;20583;-68
2022/09/08 02:18:20;;;;;;;0.90;0.90;;;11.30;99.90;;;;;;6261057;28;20303;-68
2022/09/08 02:21:27;;;;;;;0.80;0.80;;;11.30;99.90;;;;;;6261870;28;20467;-69
2022/09/08 02:24:33;;;;;;;1.17;0.90;;;11.30;99.90;;;;;;6261251;28;20295;-69
2022/09/08 02:27:38;;;;;;;0.80;0.80;;;11.20;99.90;;;;;;6260848;28;20511;-68
2022/09/08 02:30:45;;;;;;;0.80;0.80;;;11.20;99.90;;;;;;6261620;28;20295;-68
2022/09/08 02:33:51;;;;;;;1.75;0.80;;;11.10;99.90;;;;;;6260778;28;20483;-68
2022/09/08 02:36:56;;;;;;;1.30;1.00;;;11.10;99.90;;;;;;6261371;28;20573;-68
2022/09/08 02:40:03;;;;;;;0.82;0.82;;;11.10;99.90;;;;;;6260291;28;20295;-68
2022/09/08 02:43:09;;;;;;;0.90;0.90;;;11.10;99.90;;;;;;6260882;28;20291;-68
2022/09/08 02:46:16;;;;;;;0.80;0.80;;;11.10;99.90;;;;;;6261176;28;20271;-68
2022/09/08 02:49:21;;;;;;;0.90;0.90;;;11.10;99.90;;;;;;6260820;28;20299;-68
2022/09/08 02:52:27;;;;;;;0.93;0.93;;;11.20;99.90;;;;;;6260983;28;20291;-68
2022/09/08 02:55:32;;;;;;;0.90;0.90;;;11.10;99.90;;;;;;6261535;28;20272;-68
2022/09/08 02:58:38;;;;;;;0.90;0.90;;;11.10;99.90;;;;;;6260526;28;20295;-68
2022/09/08 03:01:46;;;;;;;0.90;0.90;;;11.10;99.90;;;;;;6260112;28;20259;-68
2022/09/08 03:04:51;;;;;;;2.50;0.80;;;11.00;99.90;;;;;;6260398;28;20304;-67
2022/09/08 03:07:57;;;;;;;0.90;0.90;;;11.00;99.90;;;;;;6260238;28;20572;-68
2022/09/08 03:11:03;;;;;;;0.80;0.80;;;11.00;99.90;;;;;;6265084;28;20273;-68
2022/09/08 03:14:09;;;;;;;2.75;0.82;;;11.00;99.90;;;;;;6264622;28;20296;-68
2022/09/08 03:17:16;;;;;;;0.93;0.93;;;10.90;99.90;;;;;;6265933;28;20418;-68
2022/09/08 03:20:22;;;;;;;0.88;0.88;;;10.90;99.90;;;;;;6264062;28;20299;-68
2022/09/08 03:23:28;;;;;;;4.43;1.10;;;10.90;99.90;;;;;;6265209;28;20308;-68
2022/09/08 03:26:34;;;;;;;1.42;1.00;;;10.90;99.90;;;;;;6265206;28;20272;-68
2022/09/08 03:29:39;;;;;;;4.10;1.20;;;10.90;99.90;;;;;;6264717;28;20320;-68
2022/09/08 03:32:47;;;;;;;3.08;1.05;;;11.00;99.90;;;;;;6265146;28;20296;-68
2022/09/08 03:35:53;;;;;;;1.95;1.15;;;10.90;99.90;;;;;;6264800;28;20552;-68
2022/09/08 03:38:58;;;;;;;2.38;1.30;;;10.90;99.90;;;;;;6264783;28;20296;-68
2022/09/08 03:42:03;;;;;;;5.35;1.10;;;10.90;99.90;;;;;;6264615;28;20271;-69
2022/09/08 03:45:12;;;;;;;5.22;1.40;;;10.90;99.90;;;;;;6264851;28;20578;-69
2022/09/08 03:48:19;;;;;;;4.97;1.63;;;10.80;99.90;;;;;;6264539;28;20304;-69
2022/09/08 03:51:25;;;;;;;3.42;1.73;;;10.80;99.90;;;;;;6264756;28;20276;-69
2022/09/08 03:54:50;;;;;;;7.78;1.58;;;10.70;99.90;;;;;;6264662;28;20303;-69
2022/09/08 03:57:56;;;;;;;9.25;1.45;;;10.80;99.90;;;;;;6264088;28;20300;-67
2022/09/08 04:01:01;;;;;;;1.00;1.00;;;10.80;99.90;;;;;;6264663;28;20291;-68
2022/09/08 04:04:08;;;;;;;1.75;1.23;;;10.80;99.90;;;;;;6264305;28;20291;-68
2022/09/08 04:07:13;;;;;;;1.00;1.00;;;10.80;99.90;;;;;;6264200;28;20267;-68
2022/09/08 04:10:20;;;;;;;1.85;1.10;;;10.70;99.90;;;;;;6263692;28;20283;-68
2022/09/08 04:13:26;;;;;;;1.55;1.00;;;10.80;99.90;;;;;;6263615;28;20296;-68
2022/09/08 04:16:32;;;;;;;1.27;0.93;;;10.70;99.90;;;;;;6263978;28;20440;-68
2022/09/08 04:19:39;;;;;;;0.90;0.90;;;10.60;99.90;;;;;;6263503;28;20296;-67
2022/09/08 04:22:51;;;;;;;1.40;1.00;;;10.60;99.90;;;;;;6263614;28;20287;-68
2022/09/08 04:25:58;;;;;;;0.90;0.90;;;10.60;99.90;;;;;;6264116;28;20279;-67
2022/09/08 04:29:04;;;;;;;0.90;0.90;;;10.60;99.90;;;;;;6263819;28;20557;-68
2022/09/08 04:32:10;;;;;;;0.80;0.80;;;10.60;99.90;;;;;;6264196;28;20299;-68
2022/09/08 04:35:17;;;;;;;4.38;1.00;;;10.70;99.90;;;;;;6262924;28;20536;-67
2022/09/08 04:38:23;;;;;;;1.95;1.20;;;10.70;99.90;;;;;;6263508;28;20479;-68
2022/09/08 04:41:32;;;;;;;1.60;1.40;;;10.70;99.90;;;;;;6263919;28;20291;-68
2022/09/08 04:44:38;;;;;;;2.13;1.20;;;10.70;99.90;;;;;;6263396;28;20296;-68
2022/09/08 04:47:43;;;;;;;3.40;1.35;;;10.80;99.90;;;;;;6263128;28;20291;-68
2022/09/08 04:50:54;;;;;;;1.30;1.10;;;10.80;99.90;;;;;;6263417;28;20281;-69
2022/09/08 04:54:00;;;;;;;1.00;1.00;;;10.80;99.90;;;;;;6263296;28;20304;-68
2022/09/08 04:57:06;;;;;;;3.40;2.50;;;10.80;99.90;;;;;;6263488;28;20272;-68
2022/09/08 05:00:14;;;;;;;1.33;1.33;;;10.80;99.90;;;;;;6262354;28;20387;-68
2022/09/08 05:03:19;;;;;;;1.20;1.20;;;10.80;99.90;;;;;;6262271;28;20299;-68
2022/09/08 05:06:27;;;;;;;1.30;1.30;;;10.80;99.90;;;;;;6263230;28;20272;-69
2022/09/08 05:09:33;;;;;;;3.25;1.10;;;10.80;99.90;;;;;;6262626;28;20315;-69
2022/09/08 05:12:38;;;;;;;1.30;1.20;;;10.90;99.90;;;;;;6262889;28;20300;-69
2022/09/08 05:15:44;;;;;;;2.70;1.10;;;10.90;99.90;;;;;;6262949;28;20272;-69
2022/09/08 05:18:52;;;;;;;5.78;1.45;;;10.90;99.90;;;;;;6260445;28;20597;-69
2022/09/08 05:21:59;;;;;;;1.90;1.10;;;10.90;99.90;;;;;;6260913;28;20287;-69
2022/09/08 05:25:07;;;;;;;5.80;1.10;;;11.00;99.90;;;;;;6260709;28;20292;-68
2022/09/08 05:28:12;;;;;;;1.75;1.10;;;11.00;99.90;;;;;;6261726;28;20308;-69
2022/09/08 05:31:21;;;;;;;0.98;0.98;;;11.00;99.90;;;;;;6262146;28;20272;-68
2022/09/08 05:34:27;;;;;;;3.03;1.08;;;11.00;99.90;;;;;;6261904;28;20470;-69
2022/09/08 05:37:33;;;;;;;3.10;0.90;;;11.10;99.90;;;;;;6261205;28;20281;-68
2022/09/08 05:40:39;;;;;;;1.55;0.98;;;11.10;99.90;;;;;;6261936;28;20292;-68
2022/09/08 05:43:44;;;;;;;0.90;0.90;;;11.10;99.90;;;;;;6261863;28;20299;-68
2022/09/08 05:46:50;;;;;;;1.10;1.10;;;11.20;99.90;;;;;;6262206;28;20455;-68
2022/09/08 05:49:56;;;;;;;0.90;0.90;;;11.20;99.90;;;;;;6261503;28;20296;-69
2022/09/08 05:53:02;;;;;;;1.17;1.17;;;11.20;99.90;;;;;;6261459;28;20304;-68
2022/09/08 05:56:09;;;;;;;1.42;1.10;;;11.30;99.90;;;;;;6261278;28;20275;-68
2022/09/08 05:59:15;;;;;;;0.90;0.90;;;11.40;99.90;;;;;;6261005;28;20300;-68
2022/09/08 06:02:20;;;;;;;1.00;1.00;;;11.40;99.90;;;;;;6261323;28;20403;-68
2022/09/08 06:05:26;;;;;;;0.90;0.90;;;11.40;99.90;;;;;;6261961;28;20271;-68
2022/09/08 06:08:33;;;;;;;1.85;0.88;;;11.50;99.90;;;;;;6261175;28;20295;-68
2022/09/08 06:11:39;;;;;;;1.00;1.00;;;11.50;99.90;;;;;;6261273;28;20267;-69
2022/09/08 06:14:44;;;;;;;1.45;1.00;;;11.50;99.90;;;;;;6261020;28;20303;-69
2022/09/08 06:17:49;;;;;;;2.30;1.08;;;11.60;99.90;;;;;;6260928;28;20465;-68
2022/09/08 06:20:56;;;;;;;15.80;6.10;;;11.60;99.90;;;;;;6261533;28;20452;-68
2022/09/08 06:24:06;;;;;;;2.40;1.60;;;11.70;99.90;;;;;;6260718;28;20300;-67
2022/09/08 06:27:16;;;;;;;1.45;0.90;;;11.70;99.90;;;;;;6261495;28;20560;-68
2022/09/08 06:30:22;;;;;;;0.88;0.88;;;11.80;99.90;;;;;;6260897;28;20280;-68
2022/09/08 06:33:42;;;;;;;2.25;0.70;;;11.90;99.90;;;;;;6260954;28;20308;-68
2022/09/08 06:36:53;;;;;;;0.82;0.82;;;12.00;99.90;;;;;;6261303;28;20277;-68
2022/09/08 06:40:06;;;;;;;3.75;0.90;;;12.10;99.90;;;;;;6260961;28;20312;-68
2022/09/08 06:43:18;;;;;;;0.90;0.90;;;12.20;99.90;;;;;;6261712;28;20304;-68
2022/09/08 06:46:26;;;;;;;1.00;0.90;;;12.30;99.90;;;;;;6266126;28;20272;-68
2022/09/08 06:49:32;;;;;;;1.08;0.90;;;12.50;99.90;;;;;;6265757;28;20475;-68
2022/09/08 06:52:46;;;;;;;0.75;0.75;;;12.60;99.90;;;;;;6265520;28;20291;-69
2022/09/08 06:56:20;;;;;;;0.77;0.77;;;12.80;99.90;;;;;;6266266;28;20449;-68
2022/09/08 06:59:54;;;;;;;0.85;0.85;;;13.00;99.90;;;;;;6265431;28;20303;-68
2022/09/08 07:03:12;;;;;;;1.75;1.05;;;13.20;99.90;;;;;;6265444;28;20532;-68
2022/09/08 07:06:19;;;;;;;2.38;1.30;;;13.30;99.90;;;;;;6265574;28;20271;-69
2022/09/08 07:09:34;;;;;;;1.20;1.20;;;13.30;99.90;;;;;;6265420;28;20319;-68
2022/09/08 07:12:51;;;;;;;1.30;1.30;;;13.30;99.90;;;;;;6264732;28;20307;-68
2022/09/08 07:16:06;;;;;;;1.48;1.48;;;13.20;99.90;;;;;;6265483;28;20272;-69
2022/09/08 07:19:21;;;;;;;1.27;1.27;;;13.20;99.90;;;;;;6265337;28;20296;-68
2022/09/08 07:22:48;;;;;;;1.17;1.17;;;13.30;99.90;;;;;;6264870;28;20559;-69
2022/09/08 07:26:00;;;;;;;1.20;1.20;;;13.30;99.90;;;;;;6265324;28;20448;-69
2022/09/08 07:29:14;;;;;;;1.00;1.00;;;13.30;99.90;;;;;;6264317;28;20300;-69
2022/09/08 07:32:24;;;;;;;0.88;0.88;;;13.30;99.90;;;;;;6264442;28;20570;-67
2022/09/08 07:36:07;;;;;;;1.02;0.90;;;13.40;99.90;;;;;;6264824;28;20271;-67
2022/09/08 07:39:19;;;;;;;0.98;0.98;;;13.40;99.90;;;;;;6265073;28;20482;-68
2022/09/08 07:42:24;;;;;;;1.15;1.15;;;13.40;99.90;;;;;;6264081;28;20288;-69
2022/09/08 07:45:42;;;;;;;1.00;0.80;;;13.40;99.90;;;;;;6264766;28;20275;-69
2022/09/08 07:48:56;;;;;;;0.98;0.98;;;13.40;99.90;;;;;;6264267;28;20301;-69
2022/09/08 07:52:12;;;;;;;1.00;1.00;;;13.40;99.90;;;;;;6264921;28;20272;-68
2022/09/08 07:55:26;;;;;;;1.10;1.10;;;13.40;99.90;;;;;;6263300;28;20276;-68
2022/09/08 07:58:38;;;;;;;4.43;1.05;;;13.50;99.90;;;;;;6264040;28;20311;-68
2022/09/08 08:01:58;;;;;;;0.98;0.98;;;13.60;99.90;;;;;;6264397;28;20272;-69
2022/09/08 08:05:18;;;;;;;1.30;1.20;;;13.60;99.90;;;;;;6279099;28;20304;-69
2022/09/08 08:08:32;;;;;;;1.10;1.10;;;13.60;99.90;;;;;;6264105;28;20411;-67
2022/09/08 08:11:44;;;;;;;0.90;0.90;;;13.80;99.90;;;;;;6264357;28;20268;-68
2022/09/08 08:14:57;;;;;;;1.02;1.00;;;13.80;99.90;;;;;;6263983;28;20300;-69
2022/09/08 08:18:12;;;;;;;0.90;0.90;;;13.90;99.90;;;;;;6264037;28;20296;-69
2022/09/08 08:21:23;;;;;;;0.90;0.90;;;14.00;99.90;;;;;;6263777;28;20288;-69
2022/09/08 08:24:36;;;;;;;0.98;0.98;;;14.00;99.90;;;;;;6263969;28;20305;-69
2022/09/08 08:27:49;;;;;;;0.90;0.90;;;14.10;99.90;;;;;;6263651;28;20299;-68
2022/09/08 08:31:07;;;;;;;0.90;0.90;;;14.20;99.90;;;;;;6264449;28;20288;-68
2022/09/08 08:34:27;;;;;;;2.88;2.78;;;14.30;99.90;;;;;;6263391;28;20607;-68
2022/09/08 08:37:34;;;;;;;1.40;1.40;;;14.30;99.90;;;;;;6263340;28;20276;-68
2022/09/08 08:40:53;;;;;;;1.42;1.40;;;14.30;99.90;;;;;;6263641;28;20272;-68
2022/09/08 08:44:13;;;;;;;1.23;1.23;;;14.40;99.90;;;;;;6263457;28;20307;-69
2022/09/08 08:48:05;;;;;;;1.10;1.00;;;14.50;99.90;;;;;;6263330;28;20272;-69
2022/09/08 08:51:25;;;;;;;0.90;0.90;;;14.60;99.90;;;;;;6263475;28;20271;-69
2022/09/08 08:54:51;;;;;;;1.20;1.20;;;14.60;99.90;;;;;;6263066;28;20295;-69
2022/09/08 08:58:08;;;;;;;2.42;1.17;;;14.70;99.90;;;;;;6262895;28;20482;-69
2022/09/08 09:01:49;;;;;;;0.90;0.90;;;14.70;99.90;;;;;;6263190;28;20263;-69
2022/09/08 09:05:31;;;;;;;0.90;0.90;;;14.70;99.90;;;;;;6263053;28;20295;-68
2022/09/08 09:09:12;;;;;;;1.42;1.00;;;14.80;99.90;;;;;;6254956;28;20502;-69
2022/09/08 09:12:36;;;;;;;1.02;1.00;;;14.80;99.90;;;;;;6261994;28;20356;-68
2022/09/08 09:16:04;;;;;;;1.23;0.90;;;14.80;99.90;;;;;;6261955;28;20272;-67
2022/09/08 09:20:11;;;;;;;1.50;1.40;;;14.70;99.90;;;;;;6261845;28;20300;-68
2022/09/08 09:23:35;;;;;;;1.38;1.27;;;14.80;99.90;;;;;;6232130;28;20304;-68
2022/09/08 09:26:49;;;;;;;0.90;0.90;;;14.80;99.90;;;;;;6261913;28;20583;-69
2022/09/08 09:30:09;;;;;;;2.05;1.10;;;14.80;99.90;;;;;;6261763;28;20304;-69
2022/09/08 09:33:54;;;;;;;0.95;0.70;;;14.90;99.90;;;;;;6261658;28;20307;-69
2022/09/08 09:37:40;;;;;;;1.00;1.00;;;15.00;99.90;;;;;;6262141;28;20271;-69
2022/09/08 09:41:03;;;;;;;1.85;1.85;;;15.00;99.90;;;;;;6231786;28;20280;-69
2022/09/08 09:44:32;;;;;;;1.27;1.20;;;15.00;99.90;;;;;;6261544;28;20295;-69
2022/09/08 09:49:05;;;;;;;1.50;1.40;;;15.00;99.90;;;;;;6261114;28;20296;-67
2022/09/08 09:52:18;;;;;;;1.40;1.40;;;15.00;99.90;;;;;;6154194;28;20286;-68
2022/09/08 09:55:46;;;;;;;1.40;1.40;;;15.00;99.90;;;;;;6195285;28;20283;-68
2022/09/08 09:59:58;;;;;;;0.90;0.90;;;15.00;99.90;;;;;;6261547;28;20299;-68
2022/09/08 10:03:55;;;;;;;0.80;0.80;;;15.10;99.90;;;;;;6260751;28;20319;-69
2022/09/08 10:07:39;;;;;;;1.30;1.30;;;15.10;99.90;;;;;;6239090;28;20280;-67
2022/09/08 10:11:07;;;;;;;1.73;1.30;;;15.10;99.90;;;;;;6260528;28;20295;-67
2022/09/08 10:15:01;;;;;;;1.02;0.85;;;15.20;99.90;;;;;;6261072;28;20298;-69
2022/09/08 10:19:01;;;;;;;0.70;0.70;;;15.30;99.60;;;;;;6260326;28;20299;-69
2022/09/08 10:22:54;;;;;;;0.90;0.90;;;15.30;99.20;;;;;;6261191;28;20344;-68
2022/09/08 10:27:05;;;;;;;1.10;1.10;;;15.40;99.70;;;;;;6244856;28;20303;-68
2022/09/08 10:30:38;;;;;;;2.20;1.10;;;15.40;99.10;;;;;;6254495;28;20239;-68
2022/09/08 10:34:22;;;;;;;1.10;1.10;;;15.50;99.30;;;;;;6228294;28;20474;-67
2022/09/08 10:38:13;;;;;;;1.23;1.23;;;15.50;99.20;;;;;;6243202;28;20272;-68
2022/09/08 10:42:08;;;;;;;1.00;1.00;;;15.60;99.40;;;;;;6256710;28;20272;-67
2022/09/08 10:45:25;;;;;;;6.82;1.30;;;15.60;99.00;;;;;;6260504;28;20315;-69
2022/09/08 10:48:53;;;;;;;0.80;0.80;;;15.60;98.60;;;;;;6260076;28;20303;-69
2022/09/08 10:52:32;;;;;;;1.17;1.17;;;15.60;98.90;;;;;;6261150;28;20291;-69
2022/09/08 10:56:09;;;;;;;1.33;0.90;;;15.60;98.10;;;;;;6282477;28;20469;-67
2022/09/08 10:59:45;;;;;;;1.65;1.00;;;15.70;97.90;;;;;;6282731;28;20291;-68
2022/09/08 11:03:26;;;;;;;1.45;1.45;;;15.70;97.30;;;;;;6284983;28;20303;-68
2022/09/08 11:06:43;;;;;;;1.33;1.00;;;15.80;97.80;;;;;;6285236;28;20291;-67
2022/09/08 11:09:55;;;;;;;0.70;0.70;;;15.90;96.50;;;;;;6263725;28;20291;-67
2022/09/08 11:13:28;;;;;;;0.90;0.90;;;15.90;96.00;;;;;;6260196;28;20299;-67
2022/09/08 11:17:09;;;;;;;9.55;1.33;;;16.00;95.90;;;;;;6274856;28;20280;-67
2022/09/08 11:20:27;;;;;;;1.60;1.20;;;16.10;96.00;;;;;;6275158;28;20296;-67
2022/09/08 11:23:45;;;;;;;0.75;0.75;;;16.10;95.20;;;;;;6260204;28;20296;-67
2022/09/08 11:27:00;;;;;;;0.75;0.75;;;16.00;94.70;;;;;;6260219;28;20307;-68
2022/09/08 11:30:20;;;;;;;0.88;0.88;;;16.00;95.00;;;;;;6261151;28;20590;-68
2022/09/08 11:33:51;;;;;;;3.08;0.90;;;16.00;94.80;;;;;;6264309;28;20296;-68
2022/09/08 11:37:44;;;;;;;0.80;0.80;;;16.00;94.70;;;;;;6264637;28;20464;-68
2022/09/08 11:41:37;;;;;;;1.25;1.17;;;16.10;94.80;;;;;;6242490;28;22556;-68
2022/09/08 11:44:49;;;;;;;2.55;1.30;;;16.10;95.10;;;;;;6289230;28;20466;-68
2022/09/08 11:48:24;;;;;;;1.00;0.88;;;16.10;94.80;;;;;;6284041;28;20295;-68
2022/09/08 11:51:44;;;;;;;2.38;0.95;;;16.10;95.30;;;;;;6232635;28;20276;-68
2022/09/08 11:55:29;;;;;;;0.93;0.93;;;16.20;95.20;;;;;;6264334;28;20303;-69
2022/09/08 11:58:50;;;;;;;1.65;0.93;;;16.10;95.80;;;;;;6264427;28;20295;-68
2022/09/08 12:02:13;;;;;;;1.00;1.00;;;16.10;96.50;;;;;;6264756;28;20276;-68
2022/09/08 12:05:28;;;;;;;0.90;0.80;;;16.00;96.70;;;;;;6263346;28;20275;-68
2022/09/08 12:09:34;;;;;;;0.98;0.98;;;16.00;96.00;;;;;;6264077;28;20296;-69
2022/09/08 12:13:02;;;;;;;3.53;0.93;;;16.00;96.20;;;;;;6242253;28;20300;-68
2022/09/08 12:16:45;;;;;;;1.58;1.10;;;16.00;96.30;;;;;;6263604;28;20275;-68
2022/09/08 12:20:03;;;;;;;0.98;0.90;;;16.00;97.20;;;;;;6242692;28;20296;-69
2022/09/08 12:23:33;;;;;;;5.38;1.00;;;16.10;96.50;;;;;;6238803;28;20296;-68
2022/09/08 12:26:52;;;;;;;1.08;1.02;;;16.10;96.40;;;;;;6238230;28;20300;-68
2022/09/08 12:30:08;;;;;;;0.90;0.90;;;16.10;96.50;;;;;;6238845;28;20296;-69
2022/09/08 12:34:01;;;;;;;1.85;0.90;;;16.10;96.80;;;;;;6238910;28;20297;-68
2022/09/08 12:37:14;;;;;;;0.98;0.98;;;16.10;96.40;;;;;;6237773;28;20281;-68
2022/09/08 12:41:05;;;;;;;3.97;1.17;;;16.10;96.50;;;;;;6263262;28;20276;-68
2022/09/08 12:44:27;;;;;;;1.25;1.08;;;16.20;96.90;;;;;;6262836;28;20300;-69
2022/09/08 12:47:39;;;;;;;1.00;1.00;;;16.20;96.90;;;;;;6263128;28;20579;-68
2022/09/08 12:50:53;;;;;;;3.83;0.93;;;16.20;96.40;;;;;;6263138;28;20267;-68
2022/09/08 12:54:27;;;;;;;1.30;1.00;;;16.30;97.30;;;;;;6262829;28;20304;-69
2022/09/08 12:57:54;;;;;;;3.60;0.95;;;16.30;97.10;;;;;;6260015;28;20272;-68
2022/09/08 13:01:08;;;;;;;2.47;1.23;;;16.30;97.80;;;;;;6238513;28;20272;-68
2022/09/08 13:04:44;;;;;;;1.60;0.98;;;16.30;97.30;;;;;;6237742;28;20292;-68
2022/09/08 13:07:55;;;;;;;1.40;1.00;;;16.20;97.40;;;;;;6238043;28;20292;-68
2022/09/08 13:11:08;;;;;;;1.40;1.10;;;16.20;97.70;;;;;;6252194;28;20264;-68
2022/09/08 13:14:16;;;;;;;3.30;1.20;;;16.20;97.50;;;;;;6278775;28;20299;-68
2022/09/08 13:17:29;;;;;;;3.22;1.10;;;16.30;97.50;;;;;;6286096;28;20275;-68
2022/09/08 13:20:39;;;;;;;0.82;0.80;;;16.30;97.00;;;;;;6262455;28;20272;-68
2022/09/08 13:23:49;;;;;;;3.78;1.23;;;16.30;96.50;;;;;;6274156;28;20299;-69
2022/09/08 13:27:07;;;;;;;0.70;0.70;;;16.30;96.10;;;;;;6287269;28;20318;-68
2022/09/08 13:30:17;;;;;;;0.80;0.80;;;16.20;95.70;;;;;;6262354;28;20299;-68
2022/09/08 13:34:02;;;;;;;3.03;1.85;;;16.20;95.80;;;;;;6271224;28;20299;-69
2022/09/08 13:37:22;;;;;;;0.90;0.90;;;16.20;95.80;;;;;;6278344;28;20558;-68
2022/09/08 13:40:41;;;;;;;0.93;0.93;;;16.30;95.70;;;;;;6285629;28;20279;-67
2022/09/08 13:44:21;;;;;;;1.05;1.00;;;16.30;95.80;;;;;;6285894;28;20295;-67
2022/09/08 13:48:28;;;;;;;1.10;1.10;;;16.30;95.50;;;;;;6286358;28;20292;-69
2022/09/08 13:51:45;;;;;;;5.53;1.40;;;16.20;95.80;;;;;;6269604;28;20272;-69
2022/09/08 13:55:31;;;;;;;1.00;1.00;;;16.20;95.60;;;;;;6264082;28;20296;-69
2022/09/08 13:58:42;;;;;;;1.08;1.08;;;16.20;95.90;;;;;;6272619;28;20306;-68
2022/09/08 14:01:50;;;;;;;5.03;1.00;;;16.10;95.60;;;;;;6286153;28;20276;-68
2022/09/08 14:05:02;;;;;;;1.02;1.00;;;16.20;96.10;;;;;;6264095;28;20296;-68
2022/09/08 14:08:17;;;;;;;0.90;0.90;;;16.20;96.00;;;;;;6268110;28;20299;-68
2022/09/08 14:11:39;;;;;;;0.80;0.80;;;16.30;95.90;;;;;;6286278;28;20263;-68
2022/09/08 14:15:08;;;;;;;1.77;1.00;;;16.30;96.40;;;;;;6285952;28;20299;-69
2022/09/08 14:19:03;;;;;;;1.45;1.02;;;16.30;95.50;;;;;;6285439;28;20294;-69
2022/09/08 14:22:20;;;;;;;1.75;1.02;;;16.30;95.30;;;;;;6285752;28;20270;-69
2022/09/08 14:25:30;;;;;;;1.65;1.10;;;16.20;95.50;;;;;;6284681;28;20287;-69
2022/09/08 14:28:45;;;;;;;0.90;0.90;;;16.30;96.00;;;;;;6285433;28;20482;-69
2022/09/08 14:32:03;;;;;;;2.70;1.00;;;16.30;95.50;;;;;;6285556;28;20270;-67
2022/09/08 14:35:38;;;;;;;1.30;1.30;;;16.30;95.70;;;;;;6285553;28;20295;-67
2022/09/08 14:39:12;;;;;;;1.27;1.20;;;16.40;95.50;;;;;;6285545;28;20330;-68
2022/09/08 14:42:23;;;;;;;1.48;1.23;;;16.40;95.90;;;;;;6285357;28;20271;-69
2022/09/08 14:45:37;;;;;;;4.22;1.20;;;16.50;96.40;;;;;;6286154;28;20267;-68
2022/09/08 14:49:04;;;;;;;6.47;1.23;;;16.40;95.50;;;;;;6284915;28;20298;-68
2022/09/08 14:52:24;;;;;;;5.22;1.13;;;16.40;95.60;;;;;;6285315;28;20275;-69
2022/09/08 14:55:33;;;;;;;5.55;1.40;;;16.40;95.00;;;;;;6284463;28;20554;-69
2022/09/08 14:58:55;;;;;;;0.90;0.90;;;16.30;95.40;;;;;;6285190;28;20303;-69
2022/09/08 15:02:09;;;;;;;5.78;1.40;;;16.30;94.80;;;;;;6285487;28;20267;-68
2022/09/08 15:05:25;;;;;;;0.88;0.88;;;16.30;95.30;;;;;;6287577;28;20547;-68
2022/09/08 15:08:34;;;;;;;0.98;0.98;;;16.30;95.50;;;;;;6289707;28;20312;-68
2022/09/08 15:11:48;;;;;;;1.38;1.00;;;16.20;95.70;;;;;;6290301;28;20263;-68
2022/09/08 15:15:02;;;;;;;1.23;0.98;;;16.20;96.10;;;;;;6304890;28;20294;-68
2022/09/08 15:18:28;;;;;;;1.00;1.00;;;16.20;95.90;;;;;;6297639;28;20465;-68
2022/09/08 15:21:49;;;;;;;1.20;1.08;;;16.10;95.40;;;;;;6265268;28;20271;-68
2022/09/08 15:24:56;;;;;;;1.67;1.10;;;16.10;95.40;;;;;;6286204;28;20320;-68
2022/09/08 15:28:18;;;;;;;0.90;0.90;;;16.10;95.60;;;;;;6282667;28;20461;-68
2022/09/08 15:31:35;;;;;;;1.10;1.10;;;16.00;95.70;;;;;;6264826;28;20560;-68
2022/09/08 15:34:44;;;;;;;1.95;1.20;;;16.00;95.20;;;;;;6284368;28;20312;-68
2022/09/08 15:37:56;;;;;;;1.17;1.17;;;15.90;95.50;;;;;;6284341;28;20291;-68
2022/09/08 15:41:22;;;;;;;1.08;1.00;;;15.80;95.30;;;;;;6264828;28;20544;-69
2022/09/08 15:44:43;;;;;;;0.90;0.90;;;15.80;95.20;;;;;;6282104;28;20295;-69
2022/09/08 15:48:03;;;;;;;2.03;0.90;;;15.80;95.60;;;;;;6288831;28;20295;-69
2022/09/08 15:51:18;;;;;;;0.80;0.80;;;15.80;95.10;;;;;;6289250;28;20267;-68
2022/09/08 15:54:37;;;;;;;0.90;0.90;;;15.80;95.30;;;;;;6288687;28;20300;-68
2022/09/08 15:57:54;;;;;;;0.98;0.90;;;15.80;95.60;;;;;;6288110;28;20379;-68
2022/09/08 16:01:11;;;;;;;1.42;0.90;;;15.70;94.60;;;;;;6289080;28;20448;-69
2022/09/08 16:04:27;;;;;;;0.80;0.80;;;15.70;95.30;;;;;;6271699;28;20572;-69
2022/09/08 16:07:43;;;;;;;1.45;0.80;;;15.70;95.20;;;;;;6266164;28;20411;-69
2022/09/08 16:11:11;;;;;;;1.00;1.00;;;15.60;94.70;;;;;;6288472;28;20282;-69
2022/09/08 16:14:26;;;;;;;1.10;1.05;;;15.60;95.40;;;;;;6288452;28;20300;-69
2022/09/08 16:17:33;;;;;;;0.70;0.70;;;15.60;94.70;;;;;;6287328;28;20275;-69
2022/09/08 16:20:58;;;;;;;1.10;1.10;;;15.60;94.60;;;;;;6288354;28;20275;-68
2022/09/08 16:24:06;;;;;;;1.63;1.50;;;15.60;95.00;;;;;;6288161;28;20351;-69
2022/09/08 16:27:46;;;;;;;1.30;1.30;;;15.60;95.20;;;;;;6288798;28;20304;-69
2022/09/08 16:31:16;;;;;;;1.95;1.00;;;15.60;94.90;;;;;;6287217;28;20294;-69
2022/09/08 16:34:29;;;;;;;1.13;1.00;;;15.50;95.00;;;;;;6288522;28;20299;-69
2022/09/08 16:37:42;;;;;;;0.90;0.90;;;15.50;95.90;;;;;;6288250;28;20271;-69
2022/09/08 16:40:52;;;;;;;1.10;1.10;;;15.40;95.80;;;;;;6288518;28;20279;-68
2022/09/08 16:44:02;;;;;;;1.27;1.23;;;15.40;94.80;;;;;;6287770;28;20295;-68
2022/09/08 16:47:39;;;;;;;1.02;1.02;;;15.40;95.60;;;;;;6287947;28;20466;-67
2022/09/08 16:51:07;;;;;;;1.20;1.20;;;15.40;96.50;;;;;;6287093;28;20602;-67
2022/09/08 16:54:54;;;;;;;1.95;1.10;;;15.40;96.40;;;;;;6287682;28;20476;-68
2022/09/08 16:58:29;;;;;;;2.15;1.20;;;15.40;95.30;;;;;;6284617;28;20306;-68
2022/09/08 17:01:38;;;;;;;3.30;1.65;;;15.40;95.30;;;;;;6287365;28;20275;-68
2022/09/08 17:04:51;;;;;;;1.23;1.10;;;15.30;95.40;;;;;;6287335;28;20586;-68
2022/09/08 17:08:10;;;;;;;0.77;0.77;;;15.20;95.90;;;;;;6287310;28;20299;-70
2022/09/08 17:11:43;;;;;;;1.30;1.20;;;15.10;95.50;;;;;;6287109;28;20283;-69
2022/09/08 17:14:49;;;;;;;6.82;1.10;;;15.10;96.00;;;;;;6266022;28;20303;-68
2022/09/08 17:18:22;;;;;;;1.00;1.00;;;15.10;95.30;;;;;;6262265;28;20295;-67